sensor_id;sensor_type;location;lat;lon;timestamp;temperature;humidity
53876;DHT22;39789;53.216;5.624;2022-10-16T00:01:51;13.10;99.90
53876;DHT22;39789;53.216;5.624;2022-10-16T00:04:17;13.10;99.90
53876;DHT22;39789;53.216;5.624;2022-10-16T00:06:42;13.10;99.90
53876;DHT22;39789;53.216;5.624;2022-10-16T00:09:08;13.10;99.90
53876;DHT22;39789;53.216;5.624;2022-10-16T00:11:36;13.10;99.90
53876;DHT22;39789;53.216;5.624;2022-10-16T00:14:04;13.10;99.90
53876;DHT22;39789;53.216;5.624;2022-10-16T00:16:30;13.10;99.90
53876;DHT22;39789;53.216;5.624;2022-10-16T00:18:56;13.10;99.90
53876;DHT22;39789;53.216;5.624;2022-10-16T00:21:25;13.10;99.90
53876;DHT22;39789;53.216;5.624;2022-10-16T00:23:55;13.10;99.90
53876;DHT22;39789;53.216;5.624;2022-10-16T00:26:21;13.10;99.90
53876;DHT22;39789;53.216;5.624;2022-10-16T00:28:48;13.10;99.90
53876;DHT22;39789;53.216;5.624;2022-10-16T00:31:15;13.10;99.90
53876;DHT22;39789;53.216;5.624;2022-10-16T00:33:41;13.10;99.90
53876;DHT22;39789;53.216;5.624;2022-10-16T00:36:09;13.10;99.90
53876;DHT22;39789;53.216;5.624;2022-10-16T00:38:35;13.00;99.90
53876;DHT22;39789;53.216;5.624;2022-10-16T00:41:01;13.00;99.90
53876;DHT22;39789;53.216;5.624;2022-10-16T00:43:39;13.00;99.90
53876;DHT22;39789;53.216;5.624;2022-10-16T00:46:20;13.00;99.90
53876;DHT22;39789;53.216;5.624;2022-10-16T00:49:00;13.00;99.90
53876;DHT22;39789;53.216;5.624;2022-10-16T00:51:31;13.00;99.90
53876;DHT22;39789;53.216;5.624;2022-10-16T00:53:59;13.30;99.90
53876;DHT22;39789;53.216;5.624;2022-10-16T00:56:25;13.00;99.90
53876;DHT22;39789;53.216;5.624;2022-10-16T00:58:51;13.10;99.90
53876;DHT22;39789;53.216;5.624;2022-10-16T01:01:17;13.10;99.90
53876;DHT22;39789;53.216;5.624;2022-10-16T01:03:42;13.10;99.90
53876;DHT22;39789;53.216;5.624;2022-10-16T01:09:09;13.10;99.90
53876;DHT22;39789;53.216;5.624;2022-10-16T01:14:54;13.20;99.90
53876;DHT22;39789;53.216;5.624;2022-10-16T01:17:04;13.30;99.90
53876;DHT22;39789;53.216;5.624;2022-10-16T01:19:48;13.30;99.90
53876;DHT22;39789;53.216;5.624;2022-10-16T01:22:16;13.30;99.90
53876;DHT22;39789;53.216;5.624;2022-10-16T01:24:48;13.40;99.90
53876;DHT22;39789;53.216;5.624;2022-10-16T01:27:25;13.40;99.90
53876;DHT22;39789;53.216;5.624;2022-10-16T01:35:03;13.30;99.90
53876;DHT22;39789;53.216;5.624;2022-10-16T01:40:46;13.30;99.90
53876;DHT22;39789;53.216;5.624;2022-10-16T01:43:17;13.40;99.90
53876;DHT22;39789;53.216;5.624;2022-10-16T01:45:45;13.40;99.90
53876;DHT22;39789;53.216;5.624;2022-10-16T01:48:16;13.80;99.90
53876;DHT22;39789;53.216;5.624;2022-10-16T01:50:44;13.40;99.90
53876;DHT22;39789;53.216;5.624;2022-10-16T01:53:12;13.40;99.90
53876;DHT22;39789;53.216;5.624;2022-10-16T01:55:43;13.40;99.90
53876;DHT22;39789;53.216;5.624;2022-10-16T01:58:12;13.40;99.90
53876;DHT22;39789;53.216;5.624;2022-10-16T02:00:42;13.30;99.90
53876;DHT22;39789;53.216;5.624;2022-10-16T02:03:10;13.30;99.90
53876;DHT22;39789;53.216;5.624;2022-10-16T02:05:49;13.30;99.90
53876;DHT22;39789;53.216;5.624;2022-10-16T02:08:16;13.20;99.90
53876;DHT22;39789;53.216;5.624;2022-10-16T02:10:41;13.20;99.90
53876;DHT22;39789;53.216;5.624;2022-10-16T02:13:15;13.10;99.90
53876;DHT22;39789;53.216;5.624;2022-10-16T02:15:42;13.10;99.90
53876;DHT22;39789;53.216;5.624;2022-10-16T02:18:09;13.10;99.90
53876;DHT22;39789;53.216;5.624;2022-10-16T02:20:51;13.00;99.90
53876;DHT22;39789;53.216;5.624;2022-10-16T02:26:13;13.00;99.90
53876;DHT22;39789;53.216;5.624;2022-10-16T02:28:45;12.90;99.90
53876;DHT22;39789;53.216;5.624;2022-10-16T02:31:15;12.90;99.90
53876;DHT22;39789;53.216;5.624;2022-10-16T02:33:43;12.80;99.90
53876;DHT22;39789;53.216;5.624;2022-10-16T02:36:09;12.80;99.90
53876;DHT22;39789;53.216;5.624;2022-10-16T02:38:35;12.80;99.90
53876;DHT22;39789;53.216;5.624;2022-10-16T02:41:02;12.70;99.90
53876;DHT22;39789;53.216;5.624;2022-10-16T02:43:28;12.70;99.90
53876;DHT22;39789;53.216;5.624;2022-10-16T02:45:54;13.10;99.90
53876;DHT22;39789;53.216;5.624;2022-10-16T02:48:19;12.70;99.90
53876;DHT22;39789;53.216;5.624;2022-10-16T02:50:45;12.70;99.90
53876;DHT22;39789;53.216;5.624;2022-10-16T02:53:11;12.70;99.90
53876;DHT22;39789;53.216;5.624;2022-10-16T02:55:36;12.70;99.90
53876;DHT22;39789;53.216;5.624;2022-10-16T02:58:02;12.60;99.90
53876;DHT22;39789;53.216;5.624;2022-10-16T03:00:28;12.60;99.90
53876;DHT22;39789;53.216;5.624;2022-10-16T03:02:54;12.70;99.90
53876;DHT22;39789;53.216;5.624;2022-10-16T03:05:19;12.70;99.90
53876;DHT22;39789;53.216;5.624;2022-10-16T03:07:45;12.70;99.90
53876;DHT22;39789;53.216;5.624;2022-10-16T03:10:10;12.70;99.90
53876;DHT22;39789;53.216;5.624;2022-10-16T03:12:36;12.60;99.90
53876;DHT22;39789;53.216;5.624;2022-10-16T03:15:02;12.60;99.90
53876;DHT22;39789;53.216;5.624;2022-10-16T03:17:27;12.60;99.90
53876;DHT22;39789;53.216;5.624;2022-10-16T03:19:53;12.60;99.90
53876;DHT22;39789;53.216;5.624;2022-10-16T03:22:18;12.70;99.90
53876;DHT22;39789;53.216;5.624;2022-10-16T03:24:44;12.60;99.90
53876;DHT22;39789;53.216;5.624;2022-10-16T03:27:10;12.60;99.90
53876;DHT22;39789;53.216;5.624;2022-10-16T03:29:35;12.60;99.90
53876;DHT22;39789;53.216;5.624;2022-10-16T03:32:01;12.60;99.90
53876;DHT22;39789;53.216;5.624;2022-10-16T03:34:27;12.60;99.90
53876;DHT22;39789;53.216;5.624;2022-10-16T03:36:53;12.60;99.90
53876;DHT22;39789;53.216;5.624;2022-10-16T03:39:19;12.50;99.90
53876;DHT22;39789;53.216;5.624;2022-10-16T03:41:44;12.50;99.90
53876;DHT22;39789;53.216;5.624;2022-10-16T03:44:11;12.60;99.90
53876;DHT22;39789;53.216;5.624;2022-10-16T03:46:39;12.60;99.90
53876;DHT22;39789;53.216;5.624;2022-10-16T03:49:04;12.60;99.90
53876;DHT22;39789;53.216;5.624;2022-10-16T03:51:30;12.60;99.90
53876;DHT22;39789;53.216;5.624;2022-10-16T03:53:56;12.60;99.90
53876;DHT22;39789;53.216;5.624;2022-10-16T03:56:21;12.60;99.90
53876;DHT22;39789;53.216;5.624;2022-10-16T03:58:47;12.70;99.90
53876;DHT22;39789;53.216;5.624;2022-10-16T04:01:13;12.60;99.90
53876;DHT22;39789;53.216;5.624;2022-10-16T04:03:38;12.70;99.90
53876;DHT22;39789;53.216;5.624;2022-10-16T04:06:04;12.70;99.90
53876;DHT22;39789;53.216;5.624;2022-10-16T04:08:29;12.70;99.90
53876;DHT22;39789;53.216;5.624;2022-10-16T04:10:55;12.80;99.90
53876;DHT22;39789;53.216;5.624;2022-10-16T04:13:22;12.80;99.90
53876;DHT22;39789;53.216;5.624;2022-10-16T04:15:47;12.80;99.90
53876;DHT22;39789;53.216;5.624;2022-10-16T04:18:13;12.80;99.90
53876;DHT22;39789;53.216;5.624;2022-10-16T04:20:39;12.80;99.90
53876;DHT22;39789;53.216;5.624;2022-10-16T04:23:04;12.80;99.90
53876;DHT22;39789;53.216;5.624;2022-10-16T04:25:30;12.80;99.90
53876;DHT22;39789;53.216;5.624;2022-10-16T04:27:56;12.80;99.90
53876;DHT22;39789;53.216;5.624;2022-10-16T04:30:22;12.80;99.90
53876;DHT22;39789;53.216;5.624;2022-10-16T04:32:49;12.80;99.90
53876;DHT22;39789;53.216;5.624;2022-10-16T04:35:15;12.80;99.90
53876;DHT22;39789;53.216;5.624;2022-10-16T04:37:41;12.80;99.90
53876;DHT22;39789;53.216;5.624;2022-10-16T04:43:48;12.80;99.90
53876;DHT22;39789;53.216;5.624;2022-10-16T04:46:13;12.80;99.90
53876;DHT22;39789;53.216;5.624;2022-10-16T04:48:39;12.70;99.90
53876;DHT22;39789;53.216;5.624;2022-10-16T04:51:05;12.70;99.90
53876;DHT22;39789;53.216;5.624;2022-10-16T04:53:30;12.70;99.90
53876;DHT22;39789;53.216;5.624;2022-10-16T04:55:56;12.80;99.90
53876;DHT22;39789;53.216;5.624;2022-10-16T04:58:22;12.70;99.90
53876;DHT22;39789;53.216;5.624;2022-10-16T05:00:48;12.70;99.90
53876;DHT22;39789;53.216;5.624;2022-10-16T05:03:14;13.00;99.90
53876;DHT22;39789;53.216;5.624;2022-10-16T05:05:46;12.60;99.90
53876;DHT22;39789;53.216;5.624;2022-10-16T05:08:13;12.50;99.90
53876;DHT22;39789;53.216;5.624;2022-10-16T05:10:41;12.60;99.90
53876;DHT22;39789;53.216;5.624;2022-10-16T05:13:07;12.50;99.90
53876;DHT22;39789;53.216;5.624;2022-10-16T05:15:33;12.50;99.90
53876;DHT22;39789;53.216;5.624;2022-10-16T05:17:59;12.70;99.90
53876;DHT22;39789;53.216;5.624;2022-10-16T05:20:26;12.70;99.90
53876;DHT22;39789;53.216;5.624;2022-10-16T05:22:51;12.70;99.90
53876;DHT22;39789;53.216;5.624;2022-10-16T05:25:17;12.70;99.90
53876;DHT22;39789;53.216;5.624;2022-10-16T05:27:46;12.70;99.90
53876;DHT22;39789;53.216;5.624;2022-10-16T05:30:12;12.70;99.90
53876;DHT22;39789;53.216;5.624;2022-10-16T05:32:37;12.70;99.90
53876;DHT22;39789;53.216;5.624;2022-10-16T05:35:04;12.70;99.90
53876;DHT22;39789;53.216;5.624;2022-10-16T05:37:29;12.60;99.90
53876;DHT22;39789;53.216;5.624;2022-10-16T05:39:55;12.60;99.90
53876;DHT22;39789;53.216;5.624;2022-10-16T05:42:20;12.60;99.90
53876;DHT22;39789;53.216;5.624;2022-10-16T05:44:46;12.60;99.90
53876;DHT22;39789;53.216;5.624;2022-10-16T05:47:15;12.50;99.90
53876;DHT22;39789;53.216;5.624;2022-10-16T05:49:41;12.50;99.90
53876;DHT22;39789;53.216;5.624;2022-10-16T05:52:07;12.50;99.90
53876;DHT22;39789;53.216;5.624;2022-10-16T05:54:32;12.50;99.90
53876;DHT22;39789;53.216;5.624;2022-10-16T05:56:58;12.50;99.90
53876;DHT22;39789;53.216;5.624;2022-10-16T05:59:24;12.50;99.90
53876;DHT22;39789;53.216;5.624;2022-10-16T06:01:50;12.50;99.90
53876;DHT22;39789;53.216;5.624;2022-10-16T06:04:16;12.50;99.90
53876;DHT22;39789;53.216;5.624;2022-10-16T06:06:42;12.50;99.90
53876;DHT22;39789;53.216;5.624;2022-10-16T06:09:09;12.50;99.90
53876;DHT22;39789;53.216;5.624;2022-10-16T06:11:38;12.50;99.90
53876;DHT22;39789;53.216;5.624;2022-10-16T06:14:03;12.50;99.90
53876;DHT22;39789;53.216;5.624;2022-10-16T06:16:33;12.50;99.90
53876;DHT22;39789;53.216;5.624;2022-10-16T06:19:00;12.50;99.90
53876;DHT22;39789;53.216;5.624;2022-10-16T06:21:27;12.50;99.90
53876;DHT22;39789;53.216;5.624;2022-10-16T06:23:54;12.50;99.90
53876;DHT22;39789;53.216;5.624;2022-10-16T06:26:23;12.50;99.90
53876;DHT22;39789;53.216;5.624;2022-10-16T06:28:49;12.50;99.90
53876;DHT22;39789;53.216;5.624;2022-10-16T06:31:15;12.50;99.90
53876;DHT22;39789;53.216;5.624;2022-10-16T06:33:42;12.50;99.90
53876;DHT22;39789;53.216;5.624;2022-10-16T06:36:09;12.50;99.90
53876;DHT22;39789;53.216;5.624;2022-10-16T06:38:35;12.40;99.90
53876;DHT22;39789;53.216;5.624;2022-10-16T06:41:02;12.80;99.90
53876;DHT22;39789;53.216;5.624;2022-10-16T06:43:29;12.60;99.90
53876;DHT22;39789;53.216;5.624;2022-10-16T06:45:58;12.60;99.90
53876;DHT22;39789;53.216;5.624;2022-10-16T06:48:24;12.60;99.90
53876;DHT22;39789;53.216;5.624;2022-10-16T06:51:10;12.70;99.90
53876;DHT22;39789;53.216;5.624;2022-10-16T06:53:39;12.90;99.90
53876;DHT22;39789;53.216;5.624;2022-10-16T06:58:36;12.80;99.90
53876;DHT22;39789;53.216;5.624;2022-10-16T07:01:05;12.80;99.90
53876;DHT22;39789;53.216;5.624;2022-10-16T07:03:31;12.80;99.90
53876;DHT22;39789;53.216;5.624;2022-10-16T07:05:57;12.80;99.90
53876;DHT22;39789;53.216;5.624;2022-10-16T07:08:26;12.80;99.90
53876;DHT22;39789;53.216;5.624;2022-10-16T07:11:01;12.80;99.90
53876;DHT22;39789;53.216;5.624;2022-10-16T07:13:28;12.90;99.90
53876;DHT22;39789;53.216;5.624;2022-10-16T07:15:54;12.90;99.90
53876;DHT22;39789;53.216;5.624;2022-10-16T07:18:19;13.00;99.90
53876;DHT22;39789;53.216;5.624;2022-10-16T07:20:45;13.10;99.90
53876;DHT22;39789;53.216;5.624;2022-10-16T07:23:10;13.20;99.90
53876;DHT22;39789;53.216;5.624;2022-10-16T07:25:36;13.20;99.90
53876;DHT22;39789;53.216;5.624;2022-10-16T07:28:02;13.30;99.90
53876;DHT22;39789;53.216;5.624;2022-10-16T07:30:27;13.40;99.90
53876;DHT22;39789;53.216;5.624;2022-10-16T07:32:53;13.40;99.90
53876;DHT22;39789;53.216;5.624;2022-10-16T07:35:18;13.40;99.90
53876;DHT22;39789;53.216;5.624;2022-10-16T07:37:45;13.30;99.90
53876;DHT22;39789;53.216;5.624;2022-10-16T07:40:14;14.50;99.90
53876;DHT22;39789;53.216;5.624;2022-10-16T07:42:39;13.30;99.90
53876;DHT22;39789;53.216;5.624;2022-10-16T07:45:05;13.20;99.90
53876;DHT22;39789;53.216;5.624;2022-10-16T07:47:31;13.30;99.90
53876;DHT22;39789;53.216;5.624;2022-10-16T07:49:57;13.20;99.90
53876;DHT22;39789;53.216;5.624;2022-10-16T07:52:22;13.20;99.90
53876;DHT22;39789;53.216;5.624;2022-10-16T07:54:48;13.20;99.90
53876;DHT22;39789;53.216;5.624;2022-10-16T07:57:15;13.20;99.90
53876;DHT22;39789;53.216;5.624;2022-10-16T07:59:45;13.30;99.90
53876;DHT22;39789;53.216;5.624;2022-10-16T08:02:12;13.30;99.90
53876;DHT22;39789;53.216;5.624;2022-10-16T08:04:37;13.40;99.90
53876;DHT22;39789;53.216;5.624;2022-10-16T08:07:03;13.40;99.90
53876;DHT22;39789;53.216;5.624;2022-10-16T08:09:28;13.40;99.90
53876;DHT22;39789;53.216;5.624;2022-10-16T08:11:54;13.40;99.90
53876;DHT22;39789;53.216;5.624;2022-10-16T08:14:20;13.40;99.90
53876;DHT22;39789;53.216;5.624;2022-10-16T08:16:45;13.40;99.90
53876;DHT22;39789;53.216;5.624;2022-10-16T08:19:11;13.50;99.90
53876;DHT22;39789;53.216;5.624;2022-10-16T08:21:36;13.60;99.90
53876;DHT22;39789;53.216;5.624;2022-10-16T08:27:43;13.70;99.90
53876;DHT22;39789;53.216;5.624;2022-10-16T08:30:10;13.80;99.90
53876;DHT22;39789;53.216;5.624;2022-10-16T08:32:35;13.80;99.90
53876;DHT22;39789;53.216;5.624;2022-10-16T08:35:01;13.90;99.90
53876;DHT22;39789;53.216;5.624;2022-10-16T08:37:31;13.80;99.90
53876;DHT22;39789;53.216;5.624;2022-10-16T08:39:57;13.90;99.90
53876;DHT22;39789;53.216;5.624;2022-10-16T08:45:21;13.90;99.90
53876;DHT22;39789;53.216;5.624;2022-10-16T08:48:14;14.00;99.90
53876;DHT22;39789;53.216;5.624;2022-10-16T08:50:44;14.10;99.90
53876;DHT22;39789;53.216;5.624;2022-10-16T08:53:17;14.20;99.90
53876;DHT22;39789;53.216;5.624;2022-10-16T08:55:48;14.20;99.90
53876;DHT22;39789;53.216;5.624;2022-10-16T08:58:29;14.30;99.90
53876;DHT22;39789;53.216;5.624;2022-10-16T09:00:58;14.60;99.90
53876;DHT22;39789;53.216;5.624;2022-10-16T09:06:17;14.80;99.90
53876;DHT22;39789;53.216;5.624;2022-10-16T09:22:27;15.50;99.90
53876;DHT22;39789;53.216;5.624;2022-10-16T09:24:55;16.20;99.90
53876;DHT22;39789;53.216;5.624;2022-10-16T09:27:24;15.50;99.90
53876;DHT22;39789;53.216;5.624;2022-10-16T09:29:51;15.60;99.90
53876;DHT22;39789;53.216;5.624;2022-10-16T09:32:19;15.60;99.90
53876;DHT22;39789;53.216;5.624;2022-10-16T09:34:50;15.50;99.90
53876;DHT22;39789;53.216;5.624;2022-10-16T09:37:22;15.50;99.90
53876;DHT22;39789;53.216;5.624;2022-10-16T09:39:51;15.60;99.90
53876;DHT22;39789;53.216;5.624;2022-10-16T09:44:49;15.50;99.90
53876;DHT22;39789;53.216;5.624;2022-10-16T09:47:18;15.50;99.90
53876;DHT22;39789;53.216;5.624;2022-10-16T09:50:03;15.50;99.90
53876;DHT22;39789;53.216;5.624;2022-10-16T09:52:31;15.50;99.90
53876;DHT22;39789;53.216;5.624;2022-10-16T09:55:02;16.20;99.90
53876;DHT22;39789;53.216;5.624;2022-10-16T09:57:28;15.40;99.90
53876;DHT22;39789;53.216;5.624;2022-10-16T09:59:57;15.40;99.90
53876;DHT22;39789;53.216;5.624;2022-10-16T10:02:31;15.40;99.90
53876;DHT22;39789;53.216;5.624;2022-10-16T10:04:59;15.30;99.90
53876;DHT22;39789;53.216;5.624;2022-10-16T10:07:27;15.60;99.90
53876;DHT22;39789;53.216;5.624;2022-10-16T10:09:54;15.30;99.90
53876;DHT22;39789;53.216;5.624;2022-10-16T10:12:25;15.30;99.90
53876;DHT22;39789;53.216;5.624;2022-10-16T10:15:11;15.30;99.90
53876;DHT22;39789;53.216;5.624;2022-10-16T10:17:49;15.30;99.90
53876;DHT22;39789;53.216;5.624;2022-10-16T10:20:29;16.10;99.90
53876;DHT22;39789;53.216;5.624;2022-10-16T10:22:57;15.40;99.90
53876;DHT22;39789;53.216;5.624;2022-10-16T10:25:32;15.30;99.90
53876;DHT22;39789;53.216;5.624;2022-10-16T10:28:21;15.40;99.90
53876;DHT22;39789;53.216;5.624;2022-10-16T10:30:56;15.40;99.90
53876;DHT22;39789;53.216;5.624;2022-10-16T10:33:27;15.70;99.90
53876;DHT22;39789;53.216;5.624;2022-10-16T10:38:50;15.40;99.90
53876;DHT22;39789;53.216;5.624;2022-10-16T10:44:22;15.40;99.90
53876;DHT22;39789;53.216;5.624;2022-10-16T10:46:56;15.40;99.90
53876;DHT22;39789;53.216;5.624;2022-10-16T10:49:39;15.70;99.90
53876;DHT22;39789;53.216;5.624;2022-10-16T10:52:43;15.50;99.90
53876;DHT22;39789;53.216;5.624;2022-10-16T11:00:47;15.50;99.90
53876;DHT22;39789;53.216;5.624;2022-10-16T11:06:48;15.50;99.90
53876;DHT22;39789;53.216;5.624;2022-10-16T11:11:49;15.50;99.90
53876;DHT22;39789;53.216;5.624;2022-10-16T11:14:20;15.50;99.90
53876;DHT22;39789;53.216;5.624;2022-10-16T11:19:46;15.50;99.90
53876;DHT22;39789;53.216;5.624;2022-10-16T11:24:59;15.50;99.90
53876;DHT22;39789;53.216;5.624;2022-10-16T11:30:30;15.50;99.90
53876;DHT22;39789;53.216;5.624;2022-10-16T11:38:35;15.60;99.90
53876;DHT22;39789;53.216;5.624;2022-10-16T11:41:29;15.60;99.90
53876;DHT22;39789;53.216;5.624;2022-10-16T11:46:44;15.60;99.90
53876;DHT22;39789;53.216;5.624;2022-10-16T11:49:19;15.60;99.90
53876;DHT22;39789;53.216;5.624;2022-10-16T11:52:13;15.70;99.90
53876;DHT22;39789;53.216;5.624;2022-10-16T11:57:53;15.70;99.90
53876;DHT22;39789;53.216;5.624;2022-10-16T12:03:28;15.70;99.90
53876;DHT22;39789;53.216;5.624;2022-10-16T12:06:06;15.70;99.90
53876;DHT22;39789;53.216;5.624;2022-10-16T12:08:39;15.80;99.90
53876;DHT22;39789;53.216;5.624;2022-10-16T12:13:51;15.80;99.90
53876;DHT22;39789;53.216;5.624;2022-10-16T12:18:46;15.80;99.90
53876;DHT22;39789;53.216;5.624;2022-10-16T12:21:13;15.80;99.90
53876;DHT22;39789;53.216;5.624;2022-10-16T12:24:02;15.80;99.90
53876;DHT22;39789;53.216;5.624;2022-10-16T12:26:32;15.80;99.90
53876;DHT22;39789;53.216;5.624;2022-10-16T12:31:48;15.80;99.90
53876;DHT22;39789;53.216;5.624;2022-10-16T12:34:29;15.80;99.90
53876;DHT22;39789;53.216;5.624;2022-10-16T12:37:13;15.80;99.90
53876;DHT22;39789;53.216;5.624;2022-10-16T12:39:40;15.80;99.90
53876;DHT22;39789;53.216;5.624;2022-10-16T12:44:51;15.80;99.90
53876;DHT22;39789;53.216;5.624;2022-10-16T12:49:58;15.90;99.90
53876;DHT22;39789;53.216;5.624;2022-10-16T12:52:38;15.90;99.90
53876;DHT22;39789;53.216;5.624;2022-10-16T12:55:05;15.90;99.90
53876;DHT22;39789;53.216;5.624;2022-10-16T13:00:43;16.10;99.90
53876;DHT22;39789;53.216;5.624;2022-10-16T13:04:04;15.90;99.90
53876;DHT22;39789;53.216;5.624;2022-10-16T13:06:45;15.90;99.90
53876;DHT22;39789;53.216;5.624;2022-10-16T13:12:11;16.00;99.90
53876;DHT22;39789;53.216;5.624;2022-10-16T13:15:01;16.00;99.90
53876;DHT22;39789;53.216;5.624;2022-10-16T13:23:29;16.00;99.90
53876;DHT22;39789;53.216;5.624;2022-10-16T13:28:59;15.90;99.90
53876;DHT22;39789;53.216;5.624;2022-10-16T13:31:26;15.80;99.90
53876;DHT22;39789;53.216;5.624;2022-10-16T13:33:55;15.80;99.90
53876;DHT22;39789;53.216;5.624;2022-10-16T13:36:27;15.70;99.90
53876;DHT22;39789;53.216;5.624;2022-10-16T13:39:20;15.60;99.90
53876;DHT22;39789;53.216;5.624;2022-10-16T13:41:57;15.60;99.90
53876;DHT22;39789;53.216;5.624;2022-10-16T13:44:23;15.60;99.90
53876;DHT22;39789;53.216;5.624;2022-10-16T13:46:58;15.60;99.90
53876;DHT22;39789;53.216;5.624;2022-10-16T13:49:24;15.60;99.90
53876;DHT22;39789;53.216;5.624;2022-10-16T13:51:55;15.60;99.90
53876;DHT22;39789;53.216;5.624;2022-10-16T13:54:21;15.70;99.90
53876;DHT22;39789;53.216;5.624;2022-10-16T13:56:46;15.70;99.90
53876;DHT22;39789;53.216;5.624;2022-10-16T13:59:34;15.80;99.90
53876;DHT22;39789;53.216;5.624;2022-10-16T14:02:26;16.30;99.90
53876;DHT22;39789;53.216;5.624;2022-10-16T14:04:50;15.80;99.90
53876;DHT22;39789;53.216;5.624;2022-10-16T14:07:28;15.90;99.90
53876;DHT22;39789;53.216;5.624;2022-10-16T14:09:55;15.90;99.90
53876;DHT22;39789;53.216;5.624;2022-10-16T14:12:21;15.90;99.90
53876;DHT22;39789;53.216;5.624;2022-10-16T14:14:51;16.80;99.90
53876;DHT22;39789;53.216;5.624;2022-10-16T14:17:26;16.00;99.90
53876;DHT22;39789;53.216;5.624;2022-10-16T14:19:54;16.10;99.90
53876;DHT22;39789;53.216;5.624;2022-10-16T14:22:37;16.00;99.90
53876;DHT22;39789;53.216;5.624;2022-10-16T14:27:45;15.80;99.90
53876;DHT22;39789;53.216;5.624;2022-10-16T14:30:22;15.80;99.90
53876;DHT22;39789;53.216;5.624;2022-10-16T14:33:05;15.70;99.90
53876;DHT22;39789;53.216;5.624;2022-10-16T14:35:39;15.70;99.90
53876;DHT22;39789;53.216;5.624;2022-10-16T14:38:06;15.70;99.90
53876;DHT22;39789;53.216;5.624;2022-10-16T14:40:36;15.70;99.90
53876;DHT22;39789;53.216;5.624;2022-10-16T14:43:14;15.50;99.90
53876;DHT22;39789;53.216;5.624;2022-10-16T14:45:51;15.60;99.90
53876;DHT22;39789;53.216;5.624;2022-10-16T14:48:35;15.40;99.90
53876;DHT22;39789;53.216;5.624;2022-10-16T14:51:01;15.40;99.90
53876;DHT22;39789;53.216;5.624;2022-10-16T14:53:26;15.30;99.90
53876;DHT22;39789;53.216;5.624;2022-10-16T14:55:52;15.30;99.90
53876;DHT22;39789;53.216;5.624;2022-10-16T14:58:20;15.20;99.90
53876;DHT22;39789;53.216;5.624;2022-10-16T15:00:50;15.10;99.90
53876;DHT22;39789;53.216;5.624;2022-10-16T15:03:16;15.00;99.90
53876;DHT22;39789;53.216;5.624;2022-10-16T15:05:42;15.00;99.90
53876;DHT22;39789;53.216;5.624;2022-10-16T15:08:07;15.00;99.90
53876;DHT22;39789;53.216;5.624;2022-10-16T15:10:40;14.90;99.90
53876;DHT22;39789;53.216;5.624;2022-10-16T15:13:05;14.90;99.90
53876;DHT22;39789;53.216;5.624;2022-10-16T15:15:35;14.90;99.90
53876;DHT22;39789;53.216;5.624;2022-10-16T15:18:02;14.90;99.90
53876;DHT22;39789;53.216;5.624;2022-10-16T15:20:31;14.80;99.90
53876;DHT22;39789;53.216;5.624;2022-10-16T15:22:59;14.80;99.90
53876;DHT22;39789;53.216;5.624;2022-10-16T15:25:28;14.80;99.90
53876;DHT22;39789;53.216;5.624;2022-10-16T15:27:54;14.80;99.90
53876;DHT22;39789;53.216;5.624;2022-10-16T15:30:20;14.70;99.90
53876;DHT22;39789;53.216;5.624;2022-10-16T15:32:48;14.70;99.90
53876;DHT22;39789;53.216;5.624;2022-10-16T15:35:40;14.70;99.90
53876;DHT22;39789;53.216;5.624;2022-10-16T15:38:08;14.60;99.90
53876;DHT22;39789;53.216;5.624;2022-10-16T15:41:02;14.60;99.90
53876;DHT22;39789;53.216;5.624;2022-10-16T15:43:29;14.60;99.90
53876;DHT22;39789;53.216;5.624;2022-10-16T15:46:06;14.50;99.90
53876;DHT22;39789;53.216;5.624;2022-10-16T15:48:33;14.50;99.90
53876;DHT22;39789;53.216;5.624;2022-10-16T15:51:00;14.50;99.90
53876;DHT22;39789;53.216;5.624;2022-10-16T15:53:35;14.50;99.90
53876;DHT22;39789;53.216;5.624;2022-10-16T15:56:09;14.40;99.90
53876;DHT22;39789;53.216;5.624;2022-10-16T15:58:37;14.40;99.90
53876;DHT22;39789;53.216;5.624;2022-10-16T16:01:06;14.30;99.90
53876;DHT22;39789;53.216;5.624;2022-10-16T16:03:34;14.30;99.90
53876;DHT22;39789;53.216;5.624;2022-10-16T16:06:06;14.20;99.90
53876;DHT22;39789;53.216;5.624;2022-10-16T16:08:33;14.10;99.90
53876;DHT22;39789;53.216;5.624;2022-10-16T16:11:18;14.10;99.90
53876;DHT22;39789;53.216;5.624;2022-10-16T16:13:44;14.10;99.90
53876;DHT22;39789;53.216;5.624;2022-10-16T16:16:13;14.00;99.90
53876;DHT22;39789;53.216;5.624;2022-10-16T16:18:39;14.00;99.90
53876;DHT22;39789;53.216;5.624;2022-10-16T16:21:05;13.90;99.90
53876;DHT22;39789;53.216;5.624;2022-10-16T16:23:31;13.90;99.90
53876;DHT22;39789;53.216;5.624;2022-10-16T16:26:26;13.80;99.90
53876;DHT22;39789;53.216;5.624;2022-10-16T16:28:53;13.80;99.90
53876;DHT22;39789;53.216;5.624;2022-10-16T16:31:20;13.70;99.90
53876;DHT22;39789;53.216;5.624;2022-10-16T16:33:46;13.70;99.90
53876;DHT22;39789;53.216;5.624;2022-10-16T16:36:12;13.60;99.90
53876;DHT22;39789;53.216;5.624;2022-10-16T16:38:37;13.60;99.90
53876;DHT22;39789;53.216;5.624;2022-10-16T16:41:21;13.50;99.90
53876;DHT22;39789;53.216;5.624;2022-10-16T16:43:47;13.40;99.90
53876;DHT22;39789;53.216;5.624;2022-10-16T16:46:14;13.40;99.90
53876;DHT22;39789;53.216;5.624;2022-10-16T16:48:39;13.40;99.90
53876;DHT22;39789;53.216;5.624;2022-10-16T16:51:07;13.30;99.90
53876;DHT22;39789;53.216;5.624;2022-10-16T16:53:34;13.30;99.90
53876;DHT22;39789;53.216;5.624;2022-10-16T16:56:04;13.20;99.90
53876;DHT22;39789;53.216;5.624;2022-10-16T16:58:31;13.20;99.90
53876;DHT22;39789;53.216;5.624;2022-10-16T17:00:57;13.20;99.90
53876;DHT22;39789;53.216;5.624;2022-10-16T17:03:28;13.20;99.90
53876;DHT22;39789;53.216;5.624;2022-10-16T17:06:13;13.10;99.90
53876;DHT22;39789;53.216;5.624;2022-10-16T17:08:40;13.10;99.90
53876;DHT22;39789;53.216;5.624;2022-10-16T17:11:06;13.00;99.90
53876;DHT22;39789;53.216;5.624;2022-10-16T17:13:33;12.90;99.90
53876;DHT22;39789;53.216;5.624;2022-10-16T17:16:03;12.90;99.90
53876;DHT22;39789;53.216;5.624;2022-10-16T17:18:29;12.90;99.90
53876;DHT22;39789;53.216;5.624;2022-10-16T17:20:59;12.80;99.90
53876;DHT22;39789;53.216;5.624;2022-10-16T17:23:24;12.80;99.90
53876;DHT22;39789;53.216;5.624;2022-10-16T17:25:50;12.80;99.90
53876;DHT22;39789;53.216;5.624;2022-10-16T17:28:16;12.70;99.90
53876;DHT22;39789;53.216;5.624;2022-10-16T17:30:42;12.70;99.90
53876;DHT22;39789;53.216;5.624;2022-10-16T17:33:09;12.70;99.90
53876;DHT22;39789;53.216;5.624;2022-10-16T17:35:40;12.60;99.90
53876;DHT22;39789;53.216;5.624;2022-10-16T17:38:06;12.60;99.90
53876;DHT22;39789;53.216;5.624;2022-10-16T17:40:32;12.60;99.90
53876;DHT22;39789;53.216;5.624;2022-10-16T17:42:58;12.50;99.90
53876;DHT22;39789;53.216;5.624;2022-10-16T17:45:24;12.40;99.90